createdAt,value
2018-07-01T04:27:03.734Z,63.20
2018-07-01T04:29:33.052Z,61.50
2018-07-01T04:32:01.968Z,62.70
2018-07-01T04:36:59.747Z,62.70
2018-07-01T04:39:28.664Z,62.00
2018-07-01T04:41:57.566Z,59.60
2018-07-01T04:44:26.484Z,59.50
2018-07-01T04:46:55.418Z,60.10
2018-07-01T04:49:24.403Z,59.50
2018-07-01T04:51:53.396Z,58.00
2018-07-01T04:54:22.288Z,57.40
2018-07-01T04:56:51.195Z,57.70
2018-07-01T04:59:20.104Z,58.30
2018-07-01T05:01:49.177Z,57.60
2018-07-01T05:04:18.360Z,58.10
2018-07-01T05:06:47.300Z,58.70
2018-07-01T05:09:16.176Z,58.40
2018-07-01T05:11:45.104Z,58.00
2018-07-01T05:14:14.035Z,57.00
2018-07-01T05:16:42.971Z,56.30
2018-07-01T05:19:11.910Z,55.40
2018-07-01T05:21:40.903Z,56.00
2018-07-01T05:24:09.775Z,56.70
2018-07-01T05:26:38.685Z,56.60
2018-07-01T05:29:07.591Z,57.30
2018-07-01T05:31:36.591Z,55.00
2018-07-01T05:34:05.488Z,54.80
2018-07-01T05:36:34.451Z,54.60
2018-07-01T05:39:03.447Z,55.60
2018-07-01T05:41:32.441Z,55.50
2018-07-01T05:44:01.331Z,55.00
2018-07-01T05:46:30.196Z,55.60
2018-07-01T05:48:59.104Z,55.30
2018-07-01T05:51:28.016Z,55.50
2018-07-01T05:53:56.904Z,55.00
2018-07-01T05:58:54.531Z,55.40
2018-07-01T06:01:23.491Z,54.20
2018-07-01T06:03:52.460Z,54.00
2018-07-01T06:06:21.368Z,54.70
2018-07-01T06:08:50.344Z,53.90
2018-07-01T06:11:19.243Z,53.50
2018-07-01T06:13:48.145Z,53.60
2018-07-01T06:16:17.697Z,54.60
2018-07-01T06:18:46.587Z,54.40
2018-07-01T06:21:15.515Z,54.90
2018-07-01T06:23:44.427Z,54.30
2018-07-01T06:26:13.681Z,53.50
2018-07-01T06:28:42.571Z,53.60
2018-07-01T06:31:11.464Z,53.60
2018-07-01T06:33:40.535Z,53.40
2018-07-01T06:36:09.478Z,53.20
2018-07-01T06:38:38.470Z,52.80
2018-07-01T06:41:07.361Z,52.00
2018-07-01T06:43:36.280Z,52.40
2018-07-01T06:46:05.360Z,52.90
2018-07-01T06:48:34.240Z,52.90
2018-07-01T06:51:03.151Z,53.30
2018-07-01T06:56:01.016Z,53.40
2018-07-01T06:58:30.051Z,52.40
2018-07-01T07:00:59.175Z,51.40
2018-07-01T07:03:28.088Z,52.20
2018-07-01T07:05:57.015Z,51.40
2018-07-01T07:08:25.984Z,51.50
2018-07-01T07:10:55.660Z,52.10
2018-07-01T07:13:24.581Z,53.00
2018-07-01T07:15:53.489Z,50.50
2018-07-01T07:18:22.396Z,49.50
2018-07-01T07:23:19.943Z,50.70
2018-07-01T07:25:48.835Z,51.00
2018-07-01T07:28:17.746Z,50.60
2018-07-01T07:30:46.651Z,50.00
2018-07-01T07:33:15.783Z,50.50
2018-07-01T07:35:44.727Z,51.50
2018-07-01T07:40:42.252Z,50.60
2018-07-01T07:43:11.167Z,50.50
2018-07-01T07:45:40.608Z,51.60
2018-07-01T07:48:09.568Z,50.90
2018-07-01T07:50:38.471Z,51.70
2018-07-01T07:55:36.037Z,50.70
2018-07-01T07:58:04.940Z,51.00
2018-07-01T08:00:33.884Z,51.20
2018-07-01T08:03:02.811Z,51.80
2018-07-01T08:05:31.708Z,50.60
2018-07-01T08:08:00.657Z,51.90
2018-07-01T08:10:29.553Z,50.90
2018-07-01T08:12:58.492Z,50.30
2018-07-01T08:15:27.384Z,50.00
2018-07-01T08:20:24.857Z,48.80
2018-07-01T08:22:53.773Z,47.00
2018-07-01T08:25:22.935Z,47.50
2018-07-01T08:27:51.842Z,48.10
2018-07-01T08:30:21.091Z,49.90
2018-07-01T08:32:50.329Z,48.80
2018-07-01T08:35:19.273Z,48.80
2018-07-01T08:37:48.194Z,48.50
2018-07-01T08:40:17.195Z,48.60
2018-07-01T08:42:46.056Z,48.80
2018-07-01T08:45:14.964Z,48.10
2018-07-01T08:47:44.056Z,47.90
2018-07-01T08:50:14.052Z,48.00
2018-07-01T08:52:43.094Z,47.40
2018-07-01T08:55:12.083Z,47.40
2018-07-01T08:57:41.502Z,47.20
2018-07-01T09:00:10.425Z,47.20
2018-07-01T09:02:39.335Z,46.20
2018-07-01T09:05:08.301Z,45.80
2018-07-01T09:07:37.200Z,47.70
2018-07-01T09:10:06.105Z,48.30
2018-07-01T09:12:35.284Z,48.60
2018-07-01T09:15:04.573Z,48.00
2018-07-01T09:17:33.495Z,47.80
2018-07-01T09:20:02.428Z,47.10
2018-07-01T09:22:31.327Z,47.70
2018-07-01T09:25:00.255Z,48.00
2018-07-01T09:27:29.160Z,47.50
2018-07-01T09:30:01.984Z,47.20
2018-07-01T09:35:00.344Z,48.20
2018-07-01T09:37:29.235Z,49.30
2018-07-01T09:39:58.163Z,49.30
2018-07-01T09:42:27.157Z,49.80
2018-07-01T09:44:56.049Z,49.30
2018-07-01T09:47:24.937Z,52.00
2018-07-01T09:49:53.866Z,50.90
2018-07-01T09:52:22.803Z,52.70
2018-07-01T09:54:51.756Z,52.30
2018-07-01T09:57:20.639Z,52.90
2018-07-01T09:59:49.583Z,52.60
2018-07-01T10:02:18.496Z,52.80
2018-07-01T10:04:47.461Z,51.40
2018-07-01T10:07:16.485Z,52.30
2018-07-01T10:09:45.375Z,52.70
2018-07-01T10:12:14.311Z,51.50
2018-07-01T10:14:43.263Z,52.70
2018-07-01T10:17:12.190Z,51.50
2018-07-01T10:19:41.136Z,53.40
2018-07-01T10:22:10.024Z,53.10
2018-07-01T10:24:38.958Z,54.30
2018-07-01T10:27:07.844Z,51.40
2018-07-01T10:29:36.740Z,52.10
2018-07-01T10:32:05.668Z,52.30
2018-07-01T10:34:34.578Z,51.20
2018-07-01T10:37:03.483Z,51.60
2018-07-01T10:39:33.403Z,51.60
2018-07-01T10:42:02.328Z,52.80
2018-07-01T10:44:31.525Z,52.60
2018-07-01T10:47:01.344Z,52.90
2018-07-01T10:49:30.268Z,52.90
2018-07-01T10:51:59.170Z,52.60
2018-07-01T10:54:28.105Z,52.80
2018-07-01T10:56:57.033Z,51.80
2018-07-01T10:59:26.256Z,52.30
2018-07-01T11:01:55.505Z,51.80
2018-07-01T11:04:24.455Z,52.60
2018-07-01T11:06:54.028Z,52.50
2018-07-01T11:09:22.919Z,52.40
2018-07-01T11:11:51.844Z,52.90
2018-07-01T11:14:20.792Z,51.50
2018-07-01T11:16:49.825Z,50.10
2018-07-01T11:19:18.732Z,51.60
2018-07-01T11:21:47.808Z,51.60
2018-07-01T11:24:16.720Z,50.40
2018-07-01T11:26:45.751Z,51.00
2018-07-01T11:31:43.077Z,52.20
2018-07-01T11:34:11.968Z,51.00
2018-07-01T11:36:40.874Z,52.20
2018-07-01T11:39:10.436Z,51.60
2018-07-01T11:41:39.661Z,51.60
2018-07-01T11:44:08.532Z,50.80
2018-07-01T11:46:37.452Z,52.60
2018-07-01T11:49:06.498Z,51.70
2018-07-01T11:51:35.418Z,52.10
2018-07-01T11:54:04.521Z,51.60
2018-07-01T11:56:33.435Z,51.40
2018-07-01T11:59:02.573Z,51.70
2018-07-01T12:01:31.472Z,52.30
2018-07-01T12:04:00.411Z,51.60
2018-07-01T12:06:29.308Z,51.90
2018-07-01T12:08:58.227Z,50.80
2018-07-01T12:11:27.454Z,51.20
2018-07-01T12:13:56.569Z,50.90
2018-07-01T12:16:25.565Z,51.10
2018-07-01T12:18:54.443Z,51.20
2018-07-01T12:21:23.647Z,50.50
2018-07-01T12:23:52.631Z,51.50
2018-07-01T12:26:21.542Z,51.00
2018-07-01T12:28:50.599Z,51.10
2018-07-01T12:31:19.489Z,50.20
2018-07-01T12:33:48.391Z,50.60
2018-07-01T12:36:17.327Z,50.50
2018-07-01T12:38:46.235Z,50.70
2018-07-01T12:41:15.428Z,50.60
2018-07-01T12:43:44.364Z,50.70
2018-07-01T12:46:13.247Z,50.70
2018-07-01T12:48:42.172Z,50.40
2018-07-01T12:51:11.056Z,50.40
2018-07-01T12:53:39.971Z,50.20
2018-07-01T12:56:08.943Z,50.40
2018-07-01T12:58:37.771Z,50.30
2018-07-01T13:01:06.704Z,51.10
2018-07-01T13:03:35.604Z,50.00
2018-07-01T13:06:04.515Z,50.30
2018-07-01T13:08:33.472Z,50.40
2018-07-01T13:11:02.351Z,50.40
2018-07-01T13:13:31.260Z,49.90
2018-07-01T13:16:00.282Z,49.40
2018-07-01T13:18:29.222Z,51.50
2018-07-01T13:20:58.034Z,50.50
2018-07-01T13:23:26.970Z,50.10
2018-07-01T13:25:55.851Z,49.70
2018-07-01T13:28:25.533Z,50.40
2018-07-01T13:30:54.609Z,49.00
2018-07-01T13:33:23.516Z,48.70
2018-07-01T13:35:52.484Z,49.80
2018-07-01T13:38:21.347Z,49.90
2018-07-01T13:40:50.318Z,51.00
2018-07-01T13:43:19.185Z,51.40
2018-07-01T13:45:48.111Z,51.30
2018-07-01T13:48:16.991Z,49.60
2018-07-01T13:50:45.881Z,49.60
2018-07-01T13:53:15.856Z,49.40
2018-07-01T13:55:45.265Z,48.50
2018-07-01T13:58:14.193Z,49.00
2018-07-01T14:00:44.061Z,49.00
2018-07-01T14:03:12.900Z,50.90
2018-07-01T14:05:42.884Z,50.40
2018-07-01T14:08:11.947Z,51.50
2018-07-01T14:10:40.901Z,50.00
2018-07-01T14:13:10.079Z,49.90
2018-07-01T14:15:39.000Z,50.00
2018-07-01T14:18:07.924Z,50.30
2018-07-01T14:20:36.852Z,48.80
2018-07-01T14:23:05.960Z,49.70
2018-07-01T14:25:34.861Z,50.40
2018-07-01T14:28:03.758Z,49.00
2018-07-01T14:30:32.642Z,50.30
2018-07-01T14:33:01.567Z,51.10
2018-07-01T14:35:30.519Z,50.10
2018-07-01T14:37:59.403Z,49.60
2018-07-01T14:40:29.816Z,50.10
2018-07-01T14:42:58.738Z,50.60
2018-07-01T14:45:27.648Z,49.60
2018-07-01T14:50:25.176Z,49.70
2018-07-01T14:52:54.172Z,48.60
2018-07-01T14:55:23.231Z,49.20
2018-07-01T14:57:58.769Z,48.80
2018-07-01T15:00:27.749Z,49.20
2018-07-01T15:02:56.692Z,50.10
2018-07-01T15:05:31.210Z,49.70
2018-07-01T15:08:00.404Z,49.60
2018-07-01T15:10:30.085Z,49.30
2018-07-01T15:13:02.275Z,49.70
2018-07-01T15:15:36.037Z,49.80
2018-07-01T15:18:05.084Z,49.10
2018-07-01T15:20:34.011Z,49.10
2018-07-01T15:23:02.916Z,49.90
2018-07-01T15:25:31.983Z,50.80
2018-07-01T15:28:00.964Z,48.90
2018-07-01T15:30:29.932Z,50.50
2018-07-01T15:32:59.004Z,49.70
2018-07-01T15:35:28.076Z,49.20
2018-07-01T15:37:57.027Z,49.00
2018-07-01T15:40:25.968Z,49.30
2018-07-01T15:42:54.909Z,49.40
2018-07-01T15:45:23.855Z,50.60
2018-07-01T15:47:52.755Z,50.40
2018-07-01T15:50:21.669Z,50.00
2018-07-01T15:52:50.607Z,49.00
2018-07-01T15:55:19.488Z,49.90
2018-07-01T15:57:48.460Z,49.80
2018-07-01T16:00:17.589Z,49.80
2018-07-01T16:02:46.479Z,49.70
2018-07-01T16:05:15.400Z,50.10
2018-07-01T16:07:45.125Z,49.00
2018-07-01T16:10:14.311Z,50.20
2018-07-01T16:12:43.847Z,50.20
2018-07-01T16:15:12.844Z,50.10
2018-07-01T16:17:41.734Z,49.90
2018-07-01T16:20:10.701Z,49.20
2018-07-01T16:22:39.704Z,50.40
2018-07-01T16:26:11.971Z,50.10
2018-07-01T16:28:41.468Z,49.50
2018-07-01T16:31:11.404Z,49.50
2018-07-01T16:33:40.293Z,49.50
2018-07-01T16:36:09.204Z,50.30
2018-07-01T16:38:38.122Z,50.00
2018-07-01T16:41:07.329Z,49.90
2018-07-01T16:43:36.204Z,50.20
2018-07-01T16:46:05.305Z,50.30
2018-07-01T16:48:34.243Z,49.30
2018-07-01T16:51:03.232Z,49.30
2018-07-01T16:53:32.131Z,49.30
2018-07-01T16:56:01.023Z,49.80
2018-07-01T16:58:29.944Z,49.20
2018-07-01T17:00:59.435Z,49.20
2018-07-01T17:03:28.594Z,49.10
2018-07-01T17:05:57.559Z,48.70
2018-07-01T17:08:27.407Z,49.20
2018-07-01T17:10:56.340Z,49.60
2018-07-01T17:13:25.326Z,49.30
2018-07-01T17:15:54.168Z,49.70
2018-07-01T17:18:23.101Z,50.00
2018-07-01T17:20:51.974Z,49.60
2018-07-01T17:23:20.879Z,49.30
2018-07-01T17:25:53.882Z,49.50
2018-07-01T17:28:24.400Z,48.90
2018-07-01T17:30:58.718Z,49.20
2018-07-01T17:33:28.400Z,49.30
2018-07-01T17:35:57.339Z,49.40
2018-07-01T17:38:26.225Z,48.90
2018-07-01T17:40:55.136Z,49.80
2018-07-01T17:43:24.039Z,49.40
2018-07-01T17:45:53.024Z,49.50
2018-07-01T17:48:22.228Z,50.10
2018-07-01T17:50:51.087Z,49.90
2018-07-01T17:53:31.378Z,50.00
2018-07-01T17:56:00.525Z,49.60
2018-07-01T17:58:29.461Z,49.40
2018-07-01T18:00:58.352Z,49.70
2018-07-01T18:03:27.275Z,49.80
2018-07-01T18:05:56.236Z,51.70
2018-07-01T18:08:25.132Z,52.60
2018-07-01T18:10:54.039Z,53.60
2018-07-01T18:13:22.931Z,53.50
2018-07-01T18:15:51.852Z,54.10
2018-07-01T18:18:20.761Z,54.00
2018-07-01T18:20:49.668Z,53.90
2018-07-01T18:23:44.881Z,54.20
2018-07-01T18:25:47.767Z,53.80
2018-07-01T18:28:30.186Z,54.00
2018-07-01T18:30:45.855Z,54.20
2018-07-01T18:33:14.792Z,53.90
2018-07-01T18:35:43.716Z,53.90
2018-07-01T18:38:12.636Z,54.20
2018-07-01T18:40:41.544Z,54.50
2018-07-01T18:43:10.488Z,54.80
2018-07-01T18:45:40.131Z,54.60
2018-07-01T18:48:09.116Z,54.30
2018-07-01T18:50:38.136Z,54.80
2018-07-01T18:53:07.212Z,54.50
2018-07-01T18:55:36.107Z,54.50
2018-07-01T18:58:05.242Z,54.30
2018-07-01T19:00:34.130Z,54.50
2018-07-01T19:03:03.035Z,54.60
2018-07-01T19:05:31.964Z,54.80
2018-07-01T19:08:00.919Z,54.80
2018-07-01T19:10:29.821Z,54.90
2018-07-01T19:12:58.864Z,54.80
2018-07-01T19:15:27.710Z,55.10
2018-07-01T19:17:56.627Z,55.10
2018-07-01T19:20:25.516Z,55.40
2018-07-01T19:22:54.572Z,55.20
2018-07-01T19:25:23.503Z,55.60
2018-07-01T19:27:52.424Z,55.80
2018-07-01T19:30:21.327Z,55.90
2018-07-01T19:32:50.215Z,55.80
2018-07-01T19:35:19.123Z,56.00
2018-07-01T19:37:48.019Z,55.60
2018-07-01T19:40:17.192Z,55.80
2018-07-01T19:42:46.212Z,56.00
2018-07-01T19:45:15.016Z,56.50
2018-07-01T19:47:43.929Z,56.60
2018-07-01T19:50:12.833Z,56.30
2018-07-01T19:52:42.932Z,56.60
2018-07-01T19:55:11.838Z,56.70
2018-07-01T19:57:40.721Z,57.10
2018-07-01T20:00:09.759Z,57.20
2018-07-01T20:02:38.668Z,57.40
2018-07-01T20:05:07.613Z,57.70
2018-07-01T20:07:36.494Z,57.80
2018-07-01T20:10:05.424Z,57.70
2018-07-01T20:12:34.315Z,57.70
2018-07-01T20:15:03.284Z,57.60
2018-07-01T20:17:33.212Z,58.20
2018-07-01T20:20:02.129Z,58.40
2018-07-01T20:22:31.023Z,58.40
2018-07-01T20:24:59.972Z,58.00
2018-07-01T20:27:28.894Z,58.10
2018-07-01T20:29:57.790Z,58.50
2018-07-01T20:32:26.744Z,58.60
2018-07-01T20:34:55.615Z,58.50
2018-07-01T20:37:24.536Z,58.50
2018-07-01T20:39:53.440Z,58.90
2018-07-01T20:42:22.331Z,58.80
2018-07-01T20:44:51.248Z,58.90
2018-07-01T20:47:20.133Z,59.00
2018-07-01T20:49:49.039Z,59.30
2018-07-01T20:52:17.965Z,59.60
2018-07-01T20:54:46.888Z,59.90
2018-07-01T20:57:15.865Z,60.40
2018-07-01T20:59:44.732Z,60.80
2018-07-01T21:02:13.644Z,60.80
2018-07-01T21:04:42.552Z,60.70
2018-07-01T21:07:11.526Z,60.50
2018-07-01T21:09:40.441Z,60.60
2018-07-01T21:14:37.896Z,60.70
2018-07-01T21:17:06.808Z,60.90
2018-07-01T21:19:35.692Z,60.80
2018-07-01T21:22:04.612Z,61.30
2018-07-01T21:24:33.542Z,61.80
2018-07-01T21:27:02.636Z,60.60
2018-07-01T21:29:31.562Z,61.40
2018-07-01T21:32:00.480Z,61.70
2018-07-01T21:34:29.598Z,62.20
2018-07-01T21:36:58.487Z,61.80
2018-07-01T21:39:27.379Z,61.80
2018-07-01T21:41:56.312Z,61.70
2018-07-01T21:44:25.281Z,61.90
2018-07-01T21:46:54.292Z,62.40
2018-07-01T21:49:23.383Z,62.20
2018-07-01T21:51:52.317Z,62.70
2018-07-01T21:54:21.222Z,62.40
2018-07-01T21:56:50.157Z,62.70
2018-07-01T21:59:19.124Z,62.90
2018-07-01T22:01:48.056Z,62.40
2018-07-01T22:04:17.044Z,63.10
2018-07-01T22:06:51.448Z,63.10
2018-07-01T22:09:20.484Z,63.10
2018-07-01T22:12:08.051Z,64.10
2018-07-01T22:14:48.613Z,64.00
2018-07-01T22:17:17.505Z,63.90
2018-07-01T22:19:47.447Z,64.20
2018-07-01T22:22:16.437Z,64.10
2018-07-01T22:24:45.343Z,64.10
2018-07-01T22:27:14.251Z,64.40
2018-07-01T22:29:43.165Z,64.10
2018-07-01T22:32:12.070Z,64.30
2018-07-01T22:34:42.233Z,64.30
2018-07-01T22:37:11.152Z,64.50
2018-07-01T22:39:40.060Z,64.60
2018-07-01T22:42:09.249Z,64.80
2018-07-01T22:44:38.215Z,64.70
